EGKK/LGW METAR and TAF weather

Enter ICAO airport designator
Station Type Date Time Source
EGKK METAR 2018/01/22 19:50 UTC NOAA

EGKK 221950Z 23005KT 9999 BKN035 08/04 Q1018


Station Type Date Time Source
EGKK Decoded METAR 2018/01/22 19:50 UTC NOAA

London / Gatwick Airport, United Kingdom (EGKK) 51-09N 000-11W 0M
Jan 22, 2018 - 02:50 PM EST / 2018.01.22 1950 UTC
Wind: from the SW (230 degrees) at 6 MPH (5 KT):0
Visibility: greater than 7 mile(s):0
Sky conditions: mostly cloudy
Temperature: 46 F (8 C)
Dew Point: 39 F (4 C)
Relative Humidity: 75%
Pressure (altimeter): 30.06 in. Hg (1018 hPa)
ob: EGKK 221950Z 23005KT 9999 BKN035 08/04 Q1018
cycle: 20

Station Type Date Time Source
EGKK TAF 2018/01/22 18:15 UTC NOAA

TAF EGKK 221701Z 2218/2324 27006KT 9999 SCT030
BECMG 2305/2308 21012KT BKN012
TEMPO 2307/2318 7000 -RA BKN008 PROB40
TEMPO 2307/2318 3000 RADZ BKN004 PROB30
TEMPO 2312/2324 24015G25KT
TEMPO 2318/2324 BKN015


Example: see airport list